Time;durP1;ratioP1;P1;durP2;ratioP2;P2;SDS_P1;SDS_P2;PMS_P1;PMS_P2;Temp;Humidity;BMP_temperature;BMP_pressure;BME280_temperature;BME280_humidity;BME280_pressure;Samples;Min_cycle;Max_cycle;Signal;HPM_P1;HPM_P2
2022/03/16 00:00:21;;;;;;;12.70;7.20;;;;;;;6.87;45.14;100235.28;5096982;28;20210;-56
2022/03/16 00:02:49;;;;;;;13.63;7.20;;;;;;;6.85;45.08;100229.41;5098005;28;20256;-64
2022/03/16 00:05:17;;;;;;;13.17;7.40;;;;;;;6.83;45.21;100226.09;5095054;28;20232;-56
2022/03/16 00:07:44;;;;;;;13.57;7.70;;;;;;;6.78;45.81;100228.03;5095426;28;20213;-58
2022/03/16 00:10:12;;;;;;;13.63;7.40;;;;;;;6.85;45.97;100228.59;5094787;28;20226;-56
2022/03/16 00:12:40;;;;;;;12.17;6.80;;;;;;;6.97;45.66;100218.78;5096016;28;20672;-56
2022/03/16 00:15:08;;;;;;;14.17;6.67;;;;;;;7.06;45.40;100232.84;5094880;28;20218;-62
2022/03/16 00:17:36;;;;;;;11.87;6.73;;;;;;;7.09;44.96;100244.59;5096302;28;21049;-65
2022/03/16 00:20:04;;;;;;;10.23;6.20;;;;;;;6.93;44.94;100240.13;5095105;28;20214;-64
2022/03/16 00:22:31;;;;;;;11.87;6.50;;;;;;;6.93;45.24;100227.41;5095163;28;20243;-57
2022/03/16 00:24:58;;;;;;;10.87;6.17;;;;;;;6.98;45.16;100225.53;5095249;28;20217;-57
2022/03/16 00:27:24;;;;;;;11.00;6.33;;;;;;;6.82;45.06;100234.63;5094418;28;20204;-56
2022/03/16 00:29:51;;;;;;;13.73;7.10;;;;;;;6.87;45.24;100237.81;5094181;28;20226;-64
2022/03/16 00:32:18;;;;;;;12.47;6.43;;;;;;;6.91;45.22;100239.34;5095282;28;20205;-57
2022/03/16 00:34:48;;;;;;;12.13;6.80;;;;;;;6.86;45.16;100230.25;5095445;28;20265;-65
2022/03/16 00:37:15;;;;;;;11.63;6.97;;;;;;;6.78;44.95;100207.69;5096195;28;20210;-65
2022/03/16 00:39:41;;;;;;;14.23;7.37;;;;;;;6.82;45.09;100193.97;5096174;28;20213;-65
2022/03/16 00:42:09;;;;;;;12.67;6.90;;;;;;;6.88;45.35;100196.25;5093588;28;20238;-64
2022/03/16 00:44:37;;;;;;;15.20;7.97;;;;;;;6.98;45.62;100194.16;5094983;28;20293;-56
2022/03/16 00:47:04;;;;;;;11.47;6.97;;;;;;;6.86;45.81;100195.47;5093760;28;20198;-56
2022/03/16 00:49:31;;;;;;;14.53;7.37;;;;;;;6.74;46.44;100185.78;5091942;28;20202;-57
2022/03/16 00:52:00;;;;;;;12.17;7.10;;;;;;;6.68;46.76;100175.88;5094230;28;20217;-64
2022/03/16 00:54:26;;;;;;;14.80;7.30;;;;;;;6.66;46.41;100167.47;5093550;28;20202;-64
2022/03/16 00:56:53;;;;;;;12.10;6.93;;;;;;;6.65;46.43;100165.81;5090946;28;20621;-57
2022/03/16 00:59:20;;;;;;;13.87;7.43;;;;;;;6.65;46.48;100165.81;5093073;28;20604;-64
2022/03/16 01:01:47;;;;;;;12.83;7.17;;;;;;;6.64;46.89;100174.34;5094192;28;20228;-64
2022/03/16 01:04:14;;;;;;;13.70;7.37;;;;;;;6.62;47.04;100181.19;5091526;28;20237;-56
2022/03/16 01:06:41;;;;;;;12.67;7.30;;;;;;;6.61;46.48;100179.53;5096701;28;20222;-56
2022/03/16 01:09:09;;;;;;;12.90;7.13;;;;;;;6.54;46.52;100174.72;5098414;28;20205;-64
2022/03/16 01:11:38;;;;;;;12.37;7.37;;;;;;;6.60;46.83;100185.50;5098768;28;20225;-56
2022/03/16 01:14:05;;;;;;;17.27;7.80;;;;;;;6.70;46.33;100182.56;5098823;28;20267;-65
2022/03/16 01:16:35;;;;;;;14.30;7.50;;;;;;;6.64;47.08;100174.34;5099451;28;20222;-65
2022/03/16 01:19:02;;;;;;;13.10;7.20;;;;;;;6.40;47.81;100156.63;5095572;28;20230;-56
2022/03/16 01:21:29;;;;;;;13.43;7.47;;;;;;;6.45;46.81;100149.63;5098522;28;20221;-57
2022/03/16 01:23:56;;;;;;;13.87;7.10;;;;;;;6.30;47.43;100140.06;5095862;28;20233;-64
2022/03/16 01:26:25;;;;;;;12.67;7.63;;;;;;;6.33;47.67;100129.78;5098634;28;20222;-63
2022/03/16 01:28:52;;;;;;;11.80;7.17;;;;;;;6.45;47.27;100119.13;5096914;28;20202;-56
2022/03/16 01:31:19;;;;;;;14.30;7.40;;;;;;;6.47;46.70;100131.81;5097587;28;20229;-64
2022/03/16 01:33:46;;;;;;;11.43;6.60;;;;;;;6.58;46.17;100140.66;5097182;28;20212;-64
2022/03/16 01:36:13;;;;;;;9.87;6.50;;;;;;;6.60;46.40;100148.22;5099041;28;20247;-64
2022/03/16 01:38:40;;;;;;;11.90;7.23;;;;;;;6.49;47.37;100135.13;5098157;28;20213;-56
2022/03/16 01:41:07;;;;;;;13.23;8.80;;;;;;;6.44;47.37;100137.81;5097419;28;20237;-56
2022/03/16 01:43:36;;;;;;;14.07;7.03;;;;;;;6.44;48.27;100122.56;5096502;28;20225;-56
2022/03/16 01:46:03;;;;;;;14.43;7.33;;;;;;;6.42;47.89;100124.34;5099719;28;20230;-63
2022/03/16 01:48:30;;;;;;;12.20;6.70;;;;;;;6.20;48.73;100118.44;5098825;28;20576;-57
2022/03/16 01:50:57;;;;;;;13.20;7.43;;;;;;;6.04;49.22;100124.06;5096570;28;20217;-56
2022/03/16 01:53:26;;;;;;;13.30;6.80;;;;;;;5.91;50.05;100122.84;5095488;28;20216;-64
2022/03/16 01:55:53;;;;;;;14.70;7.20;;;;;;;5.92;50.08;100114.34;5097441;28;20229;-56
2022/03/16 01:58:21;;;;;;;12.63;7.33;;;;;;;5.76;50.70;100108.16;5096773;28;20209;-64
2022/03/16 02:00:51;;;;;;;11.03;7.13;;;;;;;5.73;49.57;100098.13;5097396;28;20229;-63
2022/03/16 02:03:18;;;;;;;12.13;7.00;;;;;;;5.66;50.06;100108.50;5097778;28;20230;-64
2022/03/16 02:05:45;;;;;;;11.27;6.83;;;;;;;5.71;49.49;100104.97;5098067;28;20218;-64
2022/03/16 02:08:12;;;;;;;10.90;6.33;;;;;;;5.58;49.20;100096.97;5097027;28;20683;-57
2022/03/16 02:10:41;;;;;;;12.40;6.50;;;;;;;5.61;48.82;100090.09;5096295;28;20222;-56
2022/03/16 02:13:10;;;;;;;10.93;6.63;;;;;;;5.79;48.52;100082.66;5097337;28;20213;-64
2022/03/16 02:15:37;;;;;;;15.07;6.70;;;;;;;6.02;48.25;100095.41;5098568;28;20221;-64
2022/03/16 02:18:07;;;;;;;9.47;5.83;;;;;;;6.22;47.24;100086.19;5094880;28;20206;-56
2022/03/16 02:20:34;;;;;;;10.33;5.97;;;;;;;6.35;46.50;100080.59;5096673;28;20218;-65
2022/03/16 02:23:04;;;;;;;10.17;5.80;;;;;;;6.42;46.20;100073.53;5094912;28;20233;-66
2022/03/16 02:25:32;;;;;;;10.80;6.23;;;;;;;6.41;46.12;100061.72;5095414;28;20229;-56
2022/03/16 02:28:00;;;;;;;8.00;5.30;;;;;;;6.43;46.11;100064.19;5095273;28;20208;-64
2022/03/16 02:30:29;;;;;;;10.20;5.93;;;;;;;6.43;45.71;100082.84;5096560;28;20724;-56
2022/03/16 02:32:56;;;;;;;12.43;6.30;;;;;;;6.49;46.26;100080.06;5095019;28;20214;-56
2022/03/16 02:35:23;;;;;;;11.83;6.67;;;;;;;6.51;46.20;100078.25;5098356;28;20225;-64
2022/03/16 02:37:50;;;;;;;10.33;5.83;;;;;;;6.35;46.61;100077.22;5096960;28;20216;-64
2022/03/16 02:40:22;;;;;;;10.70;5.53;;;;;;;6.42;45.87;100076.06;5094054;28;20225;-63
2022/03/16 02:42:50;;;;;;;10.00;5.67;;;;;;;6.55;45.58;100073.91;5099394;28;20225;-64
2022/03/16 02:45:18;;;;;;;8.40;5.37;;;;;;;6.55;45.80;100067.09;5096694;28;20245;-64
2022/03/16 02:47:45;;;;;;;10.30;5.73;;;;;;;6.33;46.25;100064.56;5097452;28;20204;-63
2022/03/16 02:50:13;;;;;;;10.13;5.53;;;;;;;6.56;45.84;100068.75;5095816;28;20226;-57
2022/03/16 02:52:40;;;;;;;11.03;5.87;;;;;;;6.67;45.03;100049.72;5095616;28;20202;-58
2022/03/16 02:55:08;;;;;;;9.80;5.93;;;;;;;6.48;45.53;100049.59;5097918;28;20226;-65
2022/03/16 02:57:37;;;;;;;11.27;6.00;;;;;;;6.57;45.29;100050.09;5098111;28;20627;-56
2022/03/16 03:00:05;;;;;;;9.67;5.70;;;;;;;6.52;45.73;100044.34;5096731;28;20225;-64
2022/03/16 03:02:32;;;;;;;10.30;6.30;;;;;;;6.38;45.14;100045.78;5094918;28;20202;-57
2022/03/16 03:04:59;;;;;;;9.10;5.80;;;;;;;6.38;45.36;100041.53;5095399;28;20225;-56
2022/03/16 03:07:25;;;;;;;11.40;5.83;;;;;;;6.45;45.69;100037.84;5096177;28;20218;-64
2022/03/16 03:09:52;;;;;;;10.87;5.80;;;;;;;6.45;45.62;100042.13;5096433;28;20233;-56
2022/03/16 03:12:19;;;;;;;9.13;5.60;;;;;;;6.42;45.63;100040.50;5096594;28;20694;-62
2022/03/16 03:14:48;;;;;;;9.30;5.40;;;;;;;6.37;45.29;100034.81;5097952;28;20212;-56
2022/03/16 03:17:15;;;;;;;11.80;5.87;;;;;;;6.39;45.79;100043.19;5097064;28;20198;-57
2022/03/16 03:19:43;;;;;;;9.43;5.60;;;;;;;6.52;46.04;100039.28;5095522;28;20198;-59
2022/03/16 03:22:10;;;;;;;9.10;5.93;;;;;;;6.55;45.83;100029.00;5095126;28;20206;-56
2022/03/16 03:24:39;;;;;;;10.93;5.93;;;;;;;6.33;45.91;100018.03;5096215;28;20236;-56
2022/03/16 03:27:06;;;;;;;11.30;5.70;;;;;;;6.32;45.65;100012.13;5096001;28;20216;-64
2022/03/16 03:29:33;;;;;;;8.80;5.17;;;;;;;6.43;45.17;100008.31;5092960;28;20202;-57
2022/03/16 03:32:01;;;;;;;12.50;5.80;;;;;;;6.45;45.11;100001.47;5098554;28;20208;-56
2022/03/16 03:34:28;;;;;;;9.03;5.30;;;;;;;6.50;44.84;99995.31;5095818;28;20210;-65
2022/03/16 03:36:55;;;;;;;11.40;5.63;;;;;;;6.43;45.44;100001.53;5096017;28;20221;-57
2022/03/16 03:39:22;;;;;;;11.67;5.70;;;;;;;6.42;46.23;100007.50;5093823;28;20749;-64
2022/03/16 03:41:49;;;;;;;10.60;6.07;;;;;;;6.50;46.53;100004.66;5096530;28;20312;-65
2022/03/16 03:44:16;;;;;;;10.67;5.70;;;;;;;6.23;46.11;99996.44;5094353;28;20230;-64
2022/03/16 03:46:43;;;;;;;10.63;5.27;;;;;;;6.17;46.30;99986.50;5095159;28;20226;-56
2022/03/16 03:49:11;;;;;;;10.93;5.57;;;;;;;6.18;46.03;99986.44;5095002;28;20205;-56
2022/03/16 03:51:38;;;;;;;8.93;5.00;;;;;;;6.27;45.70;99987.81;5096288;28;20721;-57
2022/03/16 03:54:05;;;;;;;9.43;5.70;;;;;;;6.30;45.40;99992.75;5095891;28;20579;-64
2022/03/16 03:56:33;;;;;;;8.53;5.43;;;;;;;6.38;45.71;99990.75;5094827;28;20222;-63
2022/03/16 03:59:00;;;;;;;7.87;4.27;;;;;;;6.31;45.74;99982.56;5096882;28;20234;-57
2022/03/16 04:01:27;;;;;;;10.37;5.53;;;;;;;6.33;45.49;99982.47;5094927;28;20222;-57
2022/03/16 04:03:55;;;;;;;11.90;5.50;;;;;;;6.39;45.14;99983.94;5094262;28;20623;-63
2022/03/16 04:06:23;;;;;;;8.87;5.30;;;;;;;6.41;45.01;99972.00;5094999;28;20799;-56
2022/03/16 04:08:50;;;;;;;8.70;5.37;;;;;;;6.39;45.08;99961.09;5094731;28;20211;-64
2022/03/16 04:11:17;;;;;;;9.10;5.20;;;;;;;6.49;45.57;99965.72;5095039;28;20232;-56
2022/03/16 04:13:44;;;;;;;10.23;5.67;;;;;;;6.54;45.28;99963.84;5091688;28;20206;-57
2022/03/16 04:16:11;;;;;;;9.30;5.30;;;;;;;6.48;44.76;99965.78;5092907;28;20226;-56
2022/03/16 04:18:38;;;;;;;9.40;5.23;;;;;;;6.41;44.79;99960.13;5094389;28;20213;-55
2022/03/16 04:21:05;;;;;;;9.00;5.00;;;;;;;6.47;45.15;99954.78;5095208;28;20206;-56
2022/03/16 04:23:34;;;;;;;9.53;5.07;;;;;;;6.42;45.09;99956.69;5096203;28;20233;-56
2022/03/16 04:26:02;;;;;;;8.23;5.37;;;;;;;6.48;45.00;99946.28;5096087;28;20222;-56
2022/03/16 04:28:28;;;;;;;7.77;4.90;;;;;;;6.52;44.97;99942.75;5096678;28;20212;-56
2022/03/16 04:30:55;;;;;;;7.73;4.77;;;;;;;6.63;44.68;99943.97;5095606;28;20747;-56
2022/03/16 04:33:22;;;;;;;10.07;5.40;;;;;;;6.69;44.12;99946.25;5094799;28;20218;-56
2022/03/16 04:35:49;;;;;;;9.57;5.23;;;;;;;6.68;44.43;99937.81;5094548;28;20660;-64
2022/03/16 04:38:17;;;;;;;9.47;5.60;;;;;;;6.62;44.34;99929.63;5098470;28;20265;-64
2022/03/16 04:40:46;;;;;;;11.17;6.23;;;;;;;6.65;45.15;99932.06;5094512;28;20313;-58
2022/03/16 04:43:13;;;;;;;11.17;6.57;;;;;;;6.44;45.84;99926.97;5097554;28;20186;-64
2022/03/16 04:45:40;;;;;;;10.37;6.17;;;;;;;6.29;46.71;99925.09;5098851;28;20272;-56
2022/03/16 04:48:08;;;;;;;11.23;6.40;;;;;;;6.31;46.42;99924.13;5099412;28;20218;-57
2022/03/16 04:50:35;;;;;;;8.93;5.37;;;;;;;6.18;45.93;99924.69;5099515;28;20218;-65
2022/03/16 04:53:03;;;;;;;8.63;5.00;;;;;;;6.32;46.40;99920.69;5098744;28;20452;-63
2022/03/16 04:55:30;;;;;;;10.13;5.30;;;;;;;6.54;45.54;99923.19;5098097;28;20233;-64
2022/03/16 04:58:01;;;;;;;11.90;6.27;;;;;;;6.57;45.58;99930.69;5099645;28;20699;-57
2022/03/16 05:00:29;;;;;;;12.80;5.87;;;;;;;6.45;46.12;99931.16;5098810;28;20229;-64
2022/03/16 05:02:55;;;;;;;11.27;5.90;;;;;;;6.48;47.36;99925.13;5099070;28;20210;-64
2022/03/16 05:05:22;;;;;;;11.33;6.20;;;;;;;6.36;46.70;99923.94;5098232;28;20617;-64
2022/03/16 05:07:49;;;;;;;10.70;6.20;;;;;;;6.36;47.11;99916.31;5098864;28;20639;-63
2022/03/16 05:10:17;;;;;;;10.23;5.60;;;;;;;6.30;47.48;99907.22;5097531;28;20228;-56
2022/03/16 05:12:46;;;;;;;7.77;4.93;;;;;;;6.33;46.86;99916.44;5098052;28;20247;-64
2022/03/16 05:15:17;;;;;;;11.10;5.67;;;;;;;6.28;46.96;99923.41;5098260;28;20229;-56
2022/03/16 05:17:44;;;;;;;11.83;5.60;;;;;;;6.24;47.83;99919.38;5097227;28;20198;-56
2022/03/16 05:20:12;;;;;;;10.67;5.93;;;;;;;6.22;47.21;99914.34;5097807;28;20630;-56
2022/03/16 05:22:44;;;;;;;12.07;5.70;;;;;;;6.18;47.61;99906.91;5096670;28;20198;-64
2022/03/16 05:25:12;;;;;;;10.00;5.33;;;;;;;6.16;47.43;99903.63;5096168;28;20245;-56
2022/03/16 05:27:39;;;;;;;13.73;5.87;;;;;;;6.15;47.19;99910.41;5098693;28;20210;-56
2022/03/16 05:30:08;;;;;;;9.60;5.70;;;;;;;6.23;46.93;99903.31;5098517;28;20232;-64
2022/03/16 05:32:37;;;;;;;8.97;5.37;;;;;;;6.20;47.49;99900.06;5096898;28;20206;-56
2022/03/16 05:35:05;;;;;;;11.13;5.47;;;;;;;6.11;47.26;99904.63;5097575;28;20700;-56
2022/03/16 05:37:32;;;;;;;9.20;5.57;;;;;;;6.25;47.09;99903.22;5097529;28;20224;-64
2022/03/16 05:40:00;;;;;;;11.60;6.13;;;;;;;6.19;46.54;99894.16;5097248;28;20592;-56
2022/03/16 05:42:30;;;;;;;8.73;5.50;;;;;;;6.26;47.18;99889.66;5098602;28;20259;-64
2022/03/16 05:44:56;;;;;;;10.40;5.03;;;;;;;6.24;46.46;99882.09;5097337;28;20237;-56
2022/03/16 05:47:24;;;;;;;7.40;4.73;;;;;;;6.33;46.81;99885.97;5095521;28;20198;-64
2022/03/16 05:49:53;;;;;;;10.23;5.23;;;;;;;6.20;48.29;99889.91;5096374;28;20206;-56
2022/03/16 05:52:21;;;;;;;8.60;5.47;;;;;;;6.16;49.33;99893.47;5096920;28;20210;-56
2022/03/16 05:54:49;;;;;;;9.33;5.47;;;;;;;5.94;49.39;99898.59;5099338;28;20206;-64
2022/03/16 05:57:16;;;;;;;10.23;6.10;;;;;;;5.80;50.08;99892.31;5098040;28;20206;-64
2022/03/16 05:59:44;;;;;;;9.37;5.43;;;;;;;5.83;50.37;99901.53;5096578;28;20210;-56
2022/03/16 06:02:11;;;;;;;9.87;6.17;;;;;;;5.77;50.61;99892.44;5098700;28;20226;-64
2022/03/16 06:04:38;;;;;;;9.23;5.70;;;;;;;5.76;49.89;99895.03;5095922;28;20469;-64
2022/03/16 06:07:08;;;;;;;10.53;6.20;;;;;;;5.77;50.80;99894.16;5097628;28;20206;-64
2022/03/16 06:09:35;;;;;;;9.90;6.17;;;;;;;5.78;50.99;99893.25;5097984;28;20210;-64
2022/03/16 06:12:04;;;;;;;9.10;5.57;;;;;;;5.78;50.55;99883.09;5096998;28;20232;-57
2022/03/16 06:14:32;;;;;;;7.67;5.13;;;;;;;5.93;50.24;99882.50;5096882;28;20198;-56
2022/03/16 06:16:59;;;;;;;10.73;5.40;;;;;;;5.91;51.54;99891.91;5097074;28;20235;-56
2022/03/16 06:19:26;;;;;;;11.00;6.50;;;;;;;5.99;52.52;99886.53;5098102;28;20668;-57
2022/03/16 06:21:53;;;;;;;12.73;7.13;;;;;;;5.92;53.19;99883.38;5099492;28;20213;-64
2022/03/16 06:24:21;;;;;;;9.87;6.03;;;;;;;5.70;53.41;99880.03;5098046;28;20616;-64
2022/03/16 06:26:48;;;;;;;9.17;6.10;;;;;;;5.67;53.10;99881.84;5097388;28;20678;-56
2022/03/16 06:29:15;;;;;;;15.87;7.97;;;;;;;5.70;52.94;99892.72;5096225;28;20683;-64
2022/03/16 06:31:42;;;;;;;19.67;9.83;;;;;;;5.99;53.77;99887.38;5096160;28;20633;-59
2022/03/16 06:34:10;;;;;;;15.97;9.03;;;;;;;5.97;53.47;99878.97;5098915;28;20206;-56
2022/03/16 06:36:37;;;;;;;13.50;7.40;;;;;;;6.01;52.44;99885.56;5096962;28;20236;-56
2022/03/16 06:39:05;;;;;;;12.03;7.27;;;;;;;5.99;53.46;99882.28;5096730;28;20215;-56
2022/03/16 06:41:33;;;;;;;11.87;6.67;;;;;;;6.01;54.15;99887.28;5095750;28;20225;-58
2022/03/16 06:44:00;;;;;;;11.63;6.67;;;;;;;6.03;52.81;99888.06;5095123;28;20733;-57
2022/03/16 06:46:28;;;;;;;11.80;6.60;;;;;;;6.12;53.28;99893.59;5097335;28;20218;-56
2022/03/16 06:48:55;;;;;;;10.67;5.90;;;;;;;6.01;53.17;99895.72;5095949;28;20202;-57
2022/03/16 06:51:22;;;;;;;10.30;6.03;;;;;;;6.02;53.64;99897.41;5097267;28;20266;-65
2022/03/16 06:53:49;;;;;;;9.60;6.60;;;;;;;6.11;53.92;99894.47;5099084;28;20214;-57
2022/03/16 06:56:16;;;;;;;15.03;6.30;;;;;;;6.17;55.37;99895.09;5099968;28;20275;-66
2022/03/16 06:58:44;;;;;;;11.57;5.83;;;;;;;6.25;57.60;99898.97;5096554;28;20209;-65
2022/03/16 07:01:11;;;;;;;11.03;6.03;;;;;;;6.40;61.76;99897.53;5096817;28;20217;-57
2022/03/16 07:03:38;;;;;;;9.77;6.07;;;;;;;6.40;63.01;99887.38;5093850;28;20210;-65
2022/03/16 07:06:08;;;;;;;14.00;6.43;;;;;;;6.46;59.94;99888.84;5096148;28;20244;-65
2022/03/16 07:08:35;;;;;;;16.40;6.30;;;;;;;6.41;56.77;99889.00;5096873;28;20297;-57
2022/03/16 07:11:02;;;;;;;10.30;5.97;;;;;;;6.22;56.06;99893.19;5095516;28;20292;-66
2022/03/16 07:13:29;;;;;;;14.90;7.03;;;;;;;6.33;56.90;99896.13;5095589;28;20202;-65
2022/03/16 07:15:58;;;;;;;10.93;6.70;;;;;;;6.37;57.72;99892.59;5096072;28;20291;-65
2022/03/16 07:18:25;;;;;;;9.87;6.23;;;;;;;6.34;56.53;99897.75;5095861;28;20221;-65
2022/03/16 07:20:52;;;;;;;9.40;6.23;;;;;;;6.24;56.39;99896.50;5095195;28;20236;-57
2022/03/16 07:23:19;;;;;;;15.13;8.10;;;;;;;6.37;58.16;99897.66;5096822;28;20202;-65
2022/03/16 07:25:47;;;;;;;14.70;8.13;;;;;;;6.45;56.51;99894.78;5096153;28;20253;-64
2022/03/16 07:28:15;;;;;;;22.00;8.20;;;;;;;6.52;56.19;99891.94;5094391;28;20574;-66
2022/03/16 07:30:43;;;;;;;21.33;8.30;;;;;;;6.51;56.37;99886.91;5094862;28;20225;-59
2022/03/16 07:33:12;;;;;;;13.37;7.63;;;;;;;6.49;55.79;99881.91;5094920;28;20695;-65
2022/03/16 07:35:40;;;;;;;11.30;6.73;;;;;;;6.34;57.01;99882.53;5095059;28;20218;-57
2022/03/16 07:38:08;;;;;;;9.27;6.00;;;;;;;6.38;56.79;99886.59;5094258;28;20212;-56
2022/03/16 07:40:36;;;;;;;11.47;6.43;;;;;;;6.43;57.56;99876.22;5095497;28;20230;-64
2022/03/16 07:43:04;;;;;;;10.07;5.93;;;;;;;6.61;56.59;99879.72;5095559;28;20228;-57
2022/03/16 07:45:31;;;;;;;9.80;5.50;;;;;;;6.51;55.98;99880.09;5095704;28;20241;-57
2022/03/16 07:47:58;;;;;;;9.93;5.83;;;;;;;6.67;56.21;99874.38;5095132;28;20198;-57
2022/03/16 07:50:28;;;;;;;10.63;6.00;;;;;;;6.51;57.83;99869.94;5094451;28;20221;-65
2022/03/16 07:52:55;;;;;;;9.03;5.93;;;;;;;6.54;57.04;99872.38;5095373;28;20238;-65
2022/03/16 07:55:22;;;;;;;12.23;6.73;;;;;;;6.50;57.65;99878.47;5094380;28;20728;-57
2022/03/16 07:57:49;;;;;;;10.93;6.67;;;;;;;6.68;56.73;99881.91;5095409;28;20698;-65
2022/03/16 08:00:17;;;;;;;11.47;6.43;;;;;;;6.73;56.69;99879.19;5094360;28;20226;-64
2022/03/16 08:02:44;;;;;;;9.80;5.70;;;;;;;6.47;56.08;99873.50;5094821;28;20202;-57
2022/03/16 08:05:12;;;;;;;8.60;5.37;;;;;;;6.55;57.53;99875.72;5095338;28;20855;-57
2022/03/16 08:07:42;;;;;;;9.30;5.80;;;;;;;6.54;57.50;99863.91;5095911;28;20290;-57
2022/03/16 08:10:10;;;;;;;9.93;5.77;;;;;;;6.51;58.42;99864.84;5095145;28;20222;-57
2022/03/16 08:12:37;;;;;;;11.97;6.00;;;;;;;6.62;58.62;99863.56;5095722;28;20289;-65
2022/03/16 08:15:04;;;;;;;9.80;5.47;;;;;;;6.64;58.46;99854.19;5097086;28;20236;-57
2022/03/16 08:17:32;;;;;;;11.47;5.87;;;;;;;6.77;58.94;99852.72;5099025;28;20197;-57
2022/03/16 08:19:59;;;;;;;9.00;5.70;;;;;;;6.82;61.77;99850.81;5100139;28;20229;-65
2022/03/16 08:22:29;;;;;;;10.27;5.87;;;;;;;6.82;60.29;99848.28;5098020;28;20722;-64
2022/03/16 08:24:58;;;;;;;11.33;6.20;;;;;;;6.88;60.89;99855.63;5095746;28;20623;-65
2022/03/16 08:27:25;;;;;;;11.87;6.40;;;;;;;6.97;61.73;99862.84;5096116;28;20272;-64
2022/03/16 08:29:52;;;;;;;10.83;6.63;;;;;;;7.00;61.20;99872.88;5099358;28;20240;-57
2022/03/16 08:32:20;;;;;;;11.03;6.50;;;;;;;6.97;60.94;99870.47;5100323;28;20221;-64
2022/03/16 08:34:47;;;;;;;11.33;6.70;;;;;;;7.05;60.35;99874.41;5100824;28;20236;-64
2022/03/16 08:37:14;;;;;;;9.93;6.53;;;;;;;7.10;58.79;99873.31;5099704;28;20209;-56
2022/03/16 08:39:43;;;;;;;10.83;6.33;;;;;;;6.98;58.02;99868.75;5097986;28;20691;-64
2022/03/16 08:42:13;;;;;;;11.37;6.90;;;;;;;7.11;59.70;99869.03;5099057;28;20265;-64
2022/03/16 08:44:42;;;;;;;10.50;6.80;;;;;;;7.17;58.94;99869.56;5097961;28;20628;-64
2022/03/16 08:47:10;;;;;;;12.50;6.07;;;;;;;7.18;57.31;99872.94;5097588;28;20202;-58
2022/03/16 08:49:39;;;;;;;11.20;5.90;;;;;;;6.96;54.62;99866.28;5097824;28;20652;-64
2022/03/16 08:52:07;;;;;;;10.30;6.50;;;;;;;7.14;55.41;99868.91;5097043;28;20256;-57
2022/03/16 08:54:34;;;;;;;10.83;6.30;;;;;;;7.27;55.36;99864.88;5098011;28;20194;-56
2022/03/16 08:57:01;;;;;;;12.30;7.23;;;;;;;7.41;55.47;99859.97;5098385;28;20566;-64
2022/03/16 08:59:31;;;;;;;9.60;6.03;;;;;;;7.36;54.94;99861.94;5097552;28;20224;-65
2022/03/16 09:01:57;;;;;;;9.33;5.50;;;;;;;7.21;55.40;99863.47;5096918;28;20201;-56
2022/03/16 09:04:24;;;;;;;11.33;5.97;;;;;;;7.10;55.02;99860.59;5096982;28;20210;-64
2022/03/16 09:06:52;;;;;;;9.83;5.80;;;;;;;7.21;56.41;99860.06;5095835;28;20238;-57
2022/03/16 09:09:19;;;;;;;14.40;6.53;;;;;;;7.37;54.70;99866.13;5097277;28;20198;-64
2022/03/16 09:11:46;;;;;;;11.57;6.33;;;;;;;7.37;54.99;99876.28;5097172;28;20715;-64
2022/03/16 09:14:13;;;;;;;10.23;5.47;;;;;;;7.11;52.72;99872.41;5095537;28;20668;-65
2022/03/16 09:16:41;;;;;;;10.50;5.33;;;;;;;7.29;53.93;99878.34;5095743;28;20253;-64
2022/03/16 09:19:08;;;;;;;11.70;5.93;;;;;;;7.43;54.43;99881.09;5097413;28;20220;-65
2022/03/16 09:21:35;;;;;;;12.03;6.20;;;;;;;7.46;55.22;99880.94;5095376;28;20217;-64
2022/03/16 09:24:02;;;;;;;12.83;7.30;;;;;;;7.51;56.22;99877.38;5097523;28;20263;-65
2022/03/16 09:26:29;;;;;;;11.30;7.03;;;;;;;7.57;56.57;99877.91;5096816;28;20289;-64
2022/03/16 09:28:56;;;;;;;14.37;7.67;;;;;;;7.60;56.60;99874.41;5097503;28;20241;-56
2022/03/16 09:31:23;;;;;;;13.43;8.13;;;;;;;7.53;55.67;99873.84;5097939;28;20308;-62
2022/03/16 09:33:51;;;;;;;16.27;8.37;;;;;;;7.52;56.31;99869.66;5098298;28;20206;-56
2022/03/16 09:36:18;;;;;;;16.27;9.00;;;;;;;7.49;57.20;99857.91;5096327;28;20222;-63
2022/03/16 09:38:45;;;;;;;16.73;8.70;;;;;;;7.47;56.16;99859.69;5097864;28;20217;-57
2022/03/16 09:41:13;;;;;;;16.13;8.07;;;;;;;7.40;55.84;99857.53;5099164;28;20218;-57
2022/03/16 09:43:41;;;;;;;16.63;8.60;;;;;;;7.40;56.03;99865.97;5097012;28;20213;-54
2022/03/16 09:46:12;;;;;;;18.63;9.73;;;;;;;7.42;56.25;99869.28;5095062;28;20246;-55
2022/03/16 09:48:41;;;;;;;18.23;8.63;;;;;;;7.43;57.35;99860.75;5097699;28;20213;-55
2022/03/16 09:51:10;;;;;;;16.37;8.60;;;;;;;7.32;57.12;99867.22;5097110;28;20225;-56
2022/03/16 09:53:38;;;;;;;15.27;8.53;;;;;;;7.35;57.40;99872.97;5095819;28;20206;-55
2022/03/16 09:56:06;;;;;;;18.30;10.43;;;;;;;7.33;59.81;99874.78;5096108;28;20221;-63
2022/03/16 09:58:34;;;;;;;23.50;11.70;;;;;;;7.29;59.55;99868.19;5095549;28;20202;-56
2022/03/16 10:01:05;;;;;;;24.23;12.10;;;;;;;7.22;60.35;99871.91;5094501;28;20250;-55
2022/03/16 10:03:33;;;;;;;22.73;12.30;;;;;;;7.10;60.83;99877.53;5094157;28;20194;-63
2022/03/16 10:06:00;;;;;;;21.90;11.17;;;;;;;7.01;61.04;99878.78;5095478;28;20225;-64
2022/03/16 10:08:30;;;;;;;21.73;11.33;;;;;;;6.83;62.04;99879.59;5097034;28;20210;-63
2022/03/16 10:14:07;;;;;;;32.03;16.43;;;;;;;6.83;62.64;99893.13;5098326;28;20748;-57
2022/03/16 10:17:43;;;;;;;23.53;12.47;;;;;;;6.73;60.38;99894.44;5096491;28;20614;-63
2022/03/16 10:19:25;;;;;;;24.10;12.83;;;;;;;6.70;59.94;99894.56;5096588;28;20230;-55
2022/03/16 10:22:00;;;;;;;35.47;15.90;;;;;;;6.72;64.38;99892.78;5095690;28;20248;-55
2022/03/16 10:24:29;;;;;;;21.97;11.73;;;;;;;6.62;65.20;99891.53;5095512;28;20296;-55
2022/03/16 10:26:58;;;;;;;25.30;13.03;;;;;;;6.62;66.08;99886.44;5095629;28;20268;-56
2022/03/16 10:29:26;;;;;;;21.43;13.07;;;;;;;6.66;63.29;99886.25;5094022;28;20198;-55
2022/03/16 10:32:04;;;;;;;25.07;13.23;;;;;;;6.78;63.04;99887.44;5096124;28;20502;-64
2022/03/16 10:34:50;;;;;;;21.10;12.40;;;;;;;6.74;64.41;99878.28;5096889;28;20644;-58
2022/03/16 10:37:21;;;;;;;25.73;13.67;;;;;;;6.79;65.61;99873.84;5070403;28;20201;-64
2022/03/16 10:39:52;;;;;;;23.53;13.03;;;;;;;6.76;65.40;99876.50;5093229;28;20251;-57
2022/03/16 10:48:02;;;;;;;22.20;11.73;;;;;;;6.52;66.20;99871.59;5098699;28;20201;-64
2022/03/16 10:50:29;;;;;;;24.60;12.60;;;;;;;6.40;68.07;99872.13;5097675;28;20274;-57
2022/03/16 10:52:57;;;;;;;24.30;12.77;;;;;;;6.39;70.14;99869.66;5097728;28;20194;-57
2022/03/16 10:55:26;;;;;;;23.97;11.90;;;;;;;6.36;68.84;99865.50;5097678;28;20222;-65
2022/03/16 10:57:54;;;;;;;18.43;10.97;;;;;;;6.39;67.75;99865.38;5096607;28;20217;-65
2022/03/16 11:00:23;;;;;;;17.03;9.97;;;;;;;6.42;66.12;99860.16;5095147;28;20222;-66
2022/03/16 11:02:52;;;;;;;20.40;11.23;;;;;;;6.33;66.32;99863.09;5097074;28;20198;-65
2022/03/16 11:05:20;;;;;;;19.13;10.87;;;;;;;6.52;67.07;99866.53;5096687;28;20724;-57
2022/03/16 11:07:49;;;;;;;22.33;11.90;;;;;;;6.53;67.14;99870.69;5096919;28;20243;-58
2022/03/16 11:10:16;;;;;;;23.20;12.80;;;;;;;6.55;65.26;99876.56;5095687;28;20225;-67
2022/03/16 11:15:32;;;;;;;19.73;11.30;;;;;;;6.45;67.88;99872.75;5096746;28;20224;-66
2022/03/16 11:17:59;;;;;;;21.73;12.67;;;;;;;6.38;69.20;99878.97;5096447;28;20205;-59
2022/03/16 11:20:32;;;;;;;22.23;12.67;;;;;;;6.24;71.51;99877.00;5095481;28;20236;-61
2022/03/16 11:26:06;;;;;;;20.90;11.70;;;;;;;6.30;72.61;99876.75;5096097;28;20236;-66
2022/03/16 11:28:50;;;;;;;21.70;11.83;;;;;;;6.38;72.91;99866.28;5096732;28;20209;-58
2022/03/16 11:31:18;;;;;;;23.50;12.00;;;;;;;6.43;73.01;99876.22;5095349;28;20272;-57
2022/03/16 11:33:51;;;;;;;23.90;12.70;;;;;;;6.49;72.93;99883.63;5097444;28;20259;-58
2022/03/16 11:36:38;;;;;;;23.00;11.97;;;;;;;6.51;73.12;99875.00;5095407;28;20226;-63
2022/03/16 11:39:16;;;;;;;23.27;12.30;;;;;;;6.38;73.63;99878.97;5096685;28;20213;-57
2022/03/16 11:41:49;;;;;;;22.40;13.77;;;;;;;6.16;75.01;99893.47;5095288;28;20251;-66
2022/03/16 11:44:32;;;;;;;23.47;13.33;;;;;;;6.40;72.10;99891.59;5097406;28;20213;-66
2022/03/16 11:47:35;;;;;;;20.43;12.50;;;;;;;6.44;69.08;99882.97;5094547;28;20244;-57
2022/03/16 11:50:14;;;;;;;21.17;11.57;;;;;;;6.57;68.87;99887.47;5096483;28;20220;-57